Glenhaven, California
Current Conditions -  °F | °C
As of 12:56 AM on Friday 24 Oct 2014 (Local Time) from KUKI Reporting Station
Overcast Overcast  
Wind Chill: 57°   Ceiling: 300
Heat Index: 57°   Visibility: 10mi
Dew Point: 54°   Wind: 3mph
Humidity: 89%   Direction: 280°W
Pressure: 29.99"   Gusts: NA
Location:  39.03°N, 122.73°W
Report Text: KUKI 240756Z AUTO 28003KT 10SM BKN003 OVC033 14/12 A2999 RMK AO2 SLP151 T01390122 401830133
Loading
Personal Weather Stations






























Interactive Weather Map
Tropical Storm Tracking
New forecast layout! Learn more

10-Day Weather Forecast

Advertisements
Track Severe Weather on mobile